Terminal Aerodrome Forecast
Issued by NWS Twin Cities, MN

Home | Current Version | Previous Version | Graphics & Text | Print | Product List | Glossary Off
Versions: 1 2 3 4 5 6 7 8 9 10 11 12 13 14 15 16 17 18 19 20 21 22 23 24 25 26

479
FTUS43 KMPX 240520
TAFMSP
TAF
KMSP 240520Z 2406/2512 VRB04KT P6SM SCT060
      TEMPO 2409/2413 4SM BR SCT015
     FM241600 24005KT P6SM SCT150
     FM250000 11005KT P6SM SCT250=

USA.gov is the U.S. government's official web portal to all federal, state and local government web resources and services.